Time;durP1;ratioP1;P1;durP2;ratioP2;P2;SDS_P1;SDS_P2;PMS_P1;PMS_P2;Temp;Humidity;BMP_temperature;BMP_pressure;BME280_temperature;BME280_humidity;BME280_pressure;Samples;Min_cycle;Max_cycle;Signal;HPM_P1;HPM_P2
2021/06/10 00:00:23;;;;;;;4.20;3.80;;;26.20;56.80;;;;;;4976652;29;20437;-79
2021/06/10 00:02:51;;;;;;;3.60;3.30;;;26.20;56.80;;;;;;4976113;28;20210;-79
2021/06/10 00:05:20;;;;;;;3.40;3.20;;;26.20;56.80;;;;;;4975830;28;20426;-80
2021/06/10 00:07:48;;;;;;;4.30;3.90;;;26.10;56.80;;;;;;4979346;29;20437;-80
2021/06/10 00:10:16;;;;;;;4.17;3.77;;;26.10;56.80;;;;;;4979994;29;20446;-80
2021/06/10 00:12:42;;;;;;;4.20;3.80;;;26.20;56.80;;;;;;4980011;28;20398;-79
2021/06/10 00:15:13;;;;;;;3.60;3.30;;;26.20;56.80;;;;;;4980589;28;20406;-80
2021/06/10 00:17:39;;;;;;;4.07;3.57;;;26.20;56.80;;;;;;4979550;29;20413;-79
2021/06/10 00:20:07;;;;;;;3.53;3.23;;;26.20;56.80;;;;;;4978634;29;20406;-79
2021/06/10 00:22:33;;;;;;;3.40;3.03;;;26.20;56.80;;;;;;4978832;28;20238;-80
2021/06/10 00:24:59;;;;;;;4.07;3.77;;;26.10;56.80;;;;;;4979395;28;20406;-80
2021/06/10 00:27:26;;;;;;;4.40;3.87;;;26.20;56.80;;;;;;4978388;29;20418;-80
2021/06/10 00:29:52;;;;;;;3.83;3.53;;;26.20;56.80;;;;;;4978834;28;20433;-80
2021/06/10 00:32:19;;;;;;;4.37;3.97;;;26.20;56.80;;;;;;4979196;29;20489;-80
2021/06/10 00:34:47;;;;;;;3.60;3.30;;;26.20;56.80;;;;;;4978252;28;20449;-80
2021/06/10 00:37:17;;;;;;;4.27;3.90;;;26.10;56.80;;;;;;4978732;29;20402;-81
2021/06/10 00:39:43;;;;;;;4.17;3.87;;;26.10;56.80;;;;;;4978136;28;20510;-80
2021/06/10 00:42:10;;;;;;;3.80;3.50;;;26.10;56.80;;;;;;4979179;29;20450;-81
2021/06/10 00:44:36;;;;;;;3.77;3.47;;;26.10;56.80;;;;;;4978996;29;20425;-80
2021/06/10 00:47:02;;;;;;;4.30;4.00;;;26.10;56.80;;;;;;4980820;28;20490;-80
2021/06/10 00:49:28;;;;;;;3.83;3.53;;;26.10;56.80;;;;;;4981541;28;20426;-80
2021/06/10 00:51:56;;;;;;;4.23;3.93;;;26.10;56.80;;;;;;4980793;28;20434;-79
2021/06/10 00:54:22;;;;;;;3.90;3.60;;;26.10;56.80;;;;;;4981215;28;20246;-79
2021/06/10 00:56:51;;;;;;;3.60;3.30;;;26.10;56.80;;;;;;4979505;29;20402;-80
2021/06/10 00:59:17;;;;;;;4.07;3.67;;;26.10;56.80;;;;;;4979245;28;20167;-80
2021/06/10 01:01:43;;;;;;;4.23;3.93;;;26.10;56.80;;;;;;4978873;28;20465;-81
2021/06/10 01:04:09;;;;;;;4.10;3.80;;;26.10;56.80;;;;;;4978223;29;20171;-80
2021/06/10 01:07:23;;;;;;;3.60;3.30;;;26.10;56.80;;;;;;4979070;28;20425;-80
2021/06/10 01:10:18;;;;;;;4.27;3.97;;;26.10;56.70;;;;;;4953415;29;20425;-80
2021/06/10 01:13:06;;;;;;;3.83;3.53;;;26.10;56.80;;;;;;4979617;28;20383;-80
2021/06/10 01:15:41;;;;;;;4.23;3.50;;;26.10;56.90;;;;;;4977920;29;20414;-80
2021/06/10 01:18:14;;;;;;;3.67;3.37;;;26.10;56.90;;;;;;4979144;28;20426;-79
2021/06/10 01:20:42;;;;;;;3.50;3.20;;;26.00;56.80;;;;;;4979237;28;20398;-80
2021/06/10 01:23:40;;;;;;;3.97;3.67;;;26.10;56.90;;;;;;4978042;29;20534;-80
2021/06/10 01:26:35;;;;;;;4.13;3.73;;;26.10;56.80;;;;;;4977815;29;20421;-80
2021/06/10 01:29:04;;;;;;;4.37;3.97;;;26.10;56.90;;;;;;4978236;28;20375;-81
2021/06/10 01:31:34;;;;;;;3.20;2.90;;;26.00;56.80;;;;;;4978354;28;20434;-81
2021/06/10 01:34:04;;;;;;;3.83;3.50;;;26.00;56.80;;;;;;4978948;28;20399;-80
2021/06/10 01:36:34;;;;;;;3.50;3.20;;;26.00;56.80;;;;;;4979023;28;20465;-80
2021/06/10 01:39:06;;;;;;;3.70;3.40;;;26.00;56.90;;;;;;4977800;28;20471;-80
2021/06/10 01:41:34;;;;;;;3.80;3.50;;;26.00;56.90;;;;;;4978444;28;20449;-80
2021/06/10 01:44:01;;;;;;;3.87;3.57;;;26.00;56.90;;;;;;4979301;28;20421;-80
2021/06/10 01:46:29;;;;;;;3.77;3.47;;;26.00;56.80;;;;;;4978940;29;20417;-80
2021/06/10 01:48:56;;;;;;;3.80;3.50;;;26.00;56.80;;;;;;4977873;28;20482;-80
2021/06/10 01:51:28;;;;;;;4.30;3.90;;;26.00;56.70;;;;;;4978110;29;20421;-80
2021/06/10 01:53:55;;;;;;;3.60;3.30;;;26.00;56.70;;;;;;4978472;28;20471;-79
2021/06/10 01:56:23;;;;;;;4.20;3.90;;;25.90;56.70;;;;;;4978803;28;20409;-80
2021/06/10 01:58:53;;;;;;;4.10;3.80;;;25.90;56.70;;;;;;4978510;28;20425;-79
2021/06/10 02:01:29;;;;;;;3.47;3.17;;;25.90;56.70;;;;;;4978354;28;20465;-79
2021/06/10 02:03:57;;;;;;;4.23;3.93;;;25.90;56.60;;;;;;4978714;28;20390;-79
2021/06/10 02:06:25;;;;;;;4.30;3.90;;;25.90;56.70;;;;;;4978281;28;20434;-79
2021/06/10 02:08:52;;;;;;;4.23;3.93;;;25.90;56.70;;;;;;4977920;28;20438;-78
2021/06/10 02:11:24;;;;;;;4.00;3.60;;;25.90;56.70;;;;;;4978662;28;20414;-79
2021/06/10 02:13:50;;;;;;;4.27;3.87;;;25.90;56.80;;;;;;4978721;28;20416;-78
2021/06/10 02:16:18;;;;;;;4.50;3.60;;;25.90;56.90;;;;;;4978654;29;20477;-79
2021/06/10 02:18:51;;;;;;;3.87;3.57;;;25.90;56.80;;;;;;4978105;29;20422;-78
2021/06/10 02:21:17;;;;;;;3.70;3.40;;;25.90;56.90;;;;;;4978358;28;20438;-79
2021/06/10 02:23:47;;;;;;;3.47;3.17;;;25.80;56.90;;;;;;4977831;28;20457;-79
2021/06/10 02:26:20;;;;;;;4.27;3.97;;;25.90;57.00;;;;;;4977264;28;20418;-78
2021/06/10 02:28:47;;;;;;;3.53;3.23;;;25.80;56.90;;;;;;4977208;28;20402;-79
2021/06/10 02:31:15;;;;;;;4.10;3.70;;;25.80;56.90;;;;;;4976990;28;20422;-79
2021/06/10 02:33:43;;;;;;;3.53;3.23;;;25.80;56.90;;;;;;4977348;28;20518;-79
2021/06/10 02:36:12;;;;;;;3.80;3.50;;;25.80;56.90;;;;;;4978208;28;20409;-78
2021/06/10 02:38:45;;;;;;;3.80;3.50;;;25.80;56.90;;;;;;4977115;29;20426;-79
2021/06/10 02:41:13;;;;;;;3.80;3.50;;;25.80;56.90;;;;;;4976223;29;20489;-80
2021/06/10 02:43:40;;;;;;;3.70;3.40;;;25.80;56.90;;;;;;4976786;29;20454;-80
2021/06/10 02:46:09;;;;;;;3.40;3.10;;;25.80;56.90;;;;;;4976820;28;20922;-81
2021/06/10 02:48:37;;;;;;;3.40;3.10;;;25.80;56.80;;;;;;4976332;28;20425;-80
2021/06/10 02:51:06;;;;;;;3.70;3.40;;;25.90;56.90;;;;;;4976477;29;20390;-80
2021/06/10 02:53:33;;;;;;;3.63;3.33;;;25.90;56.80;;;;;;4976430;29;20406;-80
2021/06/10 02:56:01;;;;;;;3.67;3.37;;;25.80;56.80;;;;;;4975717;29;20402;-80
2021/06/10 02:58:29;;;;;;;4.00;3.70;;;25.80;56.80;;;;;;4976528;28;20423;-80
2021/06/10 03:00:57;;;;;;;4.10;3.80;;;25.80;56.80;;;;;;4976561;28;20418;-80
2021/06/10 03:03:27;;;;;;;4.50;3.80;;;25.90;56.80;;;;;;4975939;28;20398;-80
2021/06/10 03:05:58;;;;;;;3.40;3.17;;;25.90;56.80;;;;;;4976667;28;20409;-81
2021/06/10 03:08:24;;;;;;;3.40;3.20;;;25.90;56.80;;;;;;4977123;28;20421;-80
2021/06/10 03:10:50;;;;;;;3.90;3.60;;;25.90;56.70;;;;;;4975718;28;20783;-80
2021/06/10 03:13:19;;;;;;;3.80;3.50;;;25.90;56.70;;;;;;4976946;28;20394;-80
2021/06/10 03:15:52;;;;;;;3.63;3.33;;;25.90;56.70;;;;;;4975746;29;20413;-80
2021/06/10 03:18:24;;;;;;;3.27;2.97;;;25.90;56.80;;;;;;4976805;28;20390;-80
2021/06/10 03:20:50;;;;;;;3.63;3.33;;;25.90;56.80;;;;;;4975450;29;20426;-80
2021/06/10 03:23:16;;;;;;;4.67;4.27;;;25.90;56.80;;;;;;4975766;29;20418;-80
2021/06/10 03:25:45;;;;;;;4.00;3.70;;;25.90;56.70;;;;;;4975798;29;20432;-80
2021/06/10 03:28:14;;;;;;;3.57;3.27;;;25.90;56.70;;;;;;4975833;29;20174;-80
2021/06/10 03:30:40;;;;;;;4.43;3.97;;;25.90;56.70;;;;;;4976488;28;20465;-80
2021/06/10 03:33:09;;;;;;;3.40;3.10;;;25.90;56.70;;;;;;4977025;28;20425;-80
2021/06/10 03:35:37;;;;;;;3.60;3.30;;;25.90;56.70;;;;;;4975725;28;20421;-80
2021/06/10 03:38:09;;;;;;;4.10;3.80;;;25.90;56.70;;;;;;4977250;28;20429;-80
2021/06/10 03:40:36;;;;;;;3.80;3.50;;;25.90;56.70;;;;;;4978368;28;20441;-80
2021/06/10 03:43:05;;;;;;;3.93;3.63;;;25.90;56.70;;;;;;4980447;28;20458;-80
2021/06/10 03:45:32;;;;;;;3.70;3.40;;;25.90;57.20;;;;;;4981255;28;20406;-80
2021/06/10 03:47:59;;;;;;;4.80;4.30;;;25.90;56.70;;;;;;4980073;29;20454;-80
2021/06/10 03:50:31;;;;;;;4.53;4.13;;;25.90;56.60;;;;;;4979740;29;20449;-79
2021/06/10 03:52:57;;;;;;;4.43;3.80;;;25.90;56.60;;;;;;4980758;28;20406;-79
2021/06/10 03:55:23;;;;;;;4.57;4.17;;;25.90;56.60;;;;;;4979603;29;20445;-79
2021/06/10 03:57:51;;;;;;;3.73;3.43;;;25.90;56.60;;;;;;4980316;29;20489;-79
2021/06/10 04:00:24;;;;;;;3.93;3.63;;;25.80;56.70;;;;;;4980617;28;20441;-79
2021/06/10 04:02:56;;;;;;;3.77;3.47;;;25.80;56.70;;;;;;4980230;28;20445;-79
2021/06/10 04:05:25;;;;;;;3.63;3.33;;;25.80;56.80;;;;;;4980575;28;20402;-78
2021/06/10 04:07:56;;;;;;;4.60;4.20;;;25.80;56.80;;;;;;4980866;28;20401;-78
2021/06/10 04:10:22;;;;;;;3.80;3.50;;;25.80;56.90;;;;;;4981256;29;20444;-79
2021/06/10 04:12:51;;;;;;;3.70;3.40;;;25.80;56.90;;;;;;4981954;28;20426;-78
2021/06/10 04:15:19;;;;;;;4.23;3.93;;;25.80;56.90;;;;;;4981281;28;20441;-79
2021/06/10 04:17:50;;;;;;;3.80;3.50;;;25.80;56.90;;;;;;4981541;28;20497;-79
2021/06/10 04:20:19;;;;;;;4.63;4.00;;;25.80;57.00;;;;;;4980473;28;20553;-80
2021/06/10 04:22:46;;;;;;;3.93;3.63;;;25.80;57.00;;;;;;4980797;28;20441;-79
2021/06/10 04:25:29;;;;;;;4.20;3.80;;;25.80;57.00;;;;;;4977922;29;20481;-85
2021/06/10 04:28:13;;;;;;;4.50;4.10;;;25.80;57.00;;;;;;4971629;29;20501;-78
2021/06/10 04:34:02;;;;;;;4.13;3.83;;;25.70;57.00;;;;;;4978849;29;20402;-79
2021/06/10 04:36:33;;;;;;;3.93;3.63;;;25.70;57.10;;;;;;4981213;28;20429;-80
2021/06/10 04:39:00;;;;;;;4.10;3.77;;;25.70;57.00;;;;;;4979950;28;20427;-80
2021/06/10 04:41:26;;;;;;;4.50;4.20;;;25.70;57.00;;;;;;4981055;28;20548;-80
2021/06/10 04:43:52;;;;;;;7.03;4.93;;;25.70;56.90;;;;;;4980883;29;20417;-79
2021/06/10 04:46:33;;;;;;;4.60;4.20;;;25.70;56.90;;;;;;4980506;29;20413;-79
2021/06/10 04:49:06;;;;;;;4.80;4.40;;;25.80;56.90;;;;;;4980696;28;20418;-79
2021/06/10 04:51:41;;;;;;;4.23;3.93;;;25.80;56.90;;;;;;4979366;28;20438;-80
2021/06/10 04:54:07;;;;;;;4.70;4.30;;;25.80;56.80;;;;;;4980862;28;20370;-80
2021/06/10 04:56:41;;;;;;;5.20;4.70;;;25.70;56.70;;;;;;4980574;29;20429;-80
2021/06/10 04:59:07;;;;;;;4.60;4.20;;;25.80;56.80;;;;;;4980943;28;20393;-80
2021/06/10 05:01:53;;;;;;;4.13;3.77;;;25.80;56.80;;;;;;4979745;28;20462;-79
2021/06/10 05:08:06;;;;;;;5.97;4.53;;;25.80;56.70;;;;;;4979485;28;20390;-80
2021/06/10 05:10:32;;;;;;;4.03;3.73;;;25.80;56.80;;;;;;4979701;29;20441;-80
2021/06/10 05:12:58;;;;;;;4.20;3.90;;;25.80;56.70;;;;;;4977240;29;20426;-79
2021/06/10 05:15:27;;;;;;;6.03;4.40;;;25.80;56.70;;;;;;4977520;28;20190;-79
2021/06/10 05:17:56;;;;;;;4.33;4.03;;;25.80;56.70;;;;;;4978150;28;20414;-79
2021/06/10 05:20:26;;;;;;;4.40;4.00;;;25.80;56.70;;;;;;4977218;28;20398;-79
2021/06/10 05:22:52;;;;;;;4.90;4.40;;;25.80;56.60;;;;;;4977352;28;20446;-80
2021/06/10 05:25:21;;;;;;;4.60;4.20;;;25.80;56.70;;;;;;4978960;28;20414;-79
2021/06/10 05:27:49;;;;;;;4.60;4.20;;;25.80;56.70;;;;;;4977560;28;20422;-78
2021/06/10 05:30:38;;;;;;;4.93;4.43;;;25.80;56.60;;;;;;4977997;28;20418;-80
2021/06/10 05:33:35;;;;;;;4.60;4.10;;;25.90;56.60;;;;;;4979006;28;20492;-79
2021/06/10 05:36:05;;;;;;;5.03;4.60;;;25.80;56.60;;;;;;4977984;28;20434;-80
2021/06/10 05:38:39;;;;;;;5.30;4.80;;;25.80;56.60;;;;;;4977922;28;20414;-80
2021/06/10 05:41:08;;;;;;;5.03;4.63;;;25.80;56.60;;;;;;4978250;28;20497;-79
2021/06/10 05:43:36;;;;;;;4.70;4.30;;;25.80;56.60;;;;;;4977175;29;20480;-79
2021/06/10 05:46:09;;;;;;;5.27;4.80;;;25.80;56.60;;;;;;4977942;28;20410;-80
2021/06/10 05:48:35;;;;;;;5.37;4.87;;;25.80;56.70;;;;;;4977533;29;20473;-80
2021/06/10 05:51:00;;;;;;;5.53;5.03;;;25.80;57.20;;;;;;4977341;28;20434;-79
2021/06/10 05:53:42;;;;;;;;;;;;;;;;;;;;;
2021/06/10 05:56:08;;;;;;;5.43;4.93;;;25.80;56.70;;;;;;4977996;29;20166;-80
2021/06/10 05:58:37;;;;;;;5.33;4.87;;;25.70;56.70;;;;;;4977335;28;20767;-79
2021/06/10 06:01:03;;;;;;;4.37;3.97;;;25.70;56.60;;;;;;4977755;28;20406;-79
2021/06/10 06:03:33;;;;;;;4.50;4.10;;;25.70;56.60;;;;;;4976171;28;20839;-79
2021/06/10 06:06:22;;;;;;;5.63;5.13;;;25.70;56.60;;;;;;4977463;28;20450;-79
2021/06/10 06:08:48;;;;;;;5.13;4.73;;;25.70;57.20;;;;;;4976676;28;20438;-79
2021/06/10 06:11:15;;;;;;;5.30;4.80;;;25.70;56.60;;;;;;4976495;28;20417;-80
2021/06/10 06:14:05;;;;;;;5.60;5.10;;;25.70;56.60;;;;;;4976452;28;20453;-80
2021/06/10 06:16:31;;;;;;;4.43;4.03;;;25.70;56.70;;;;;;4976637;29;20452;-79
2021/06/10 06:18:59;;;;;;;4.90;4.50;;;25.70;56.80;;;;;;4976155;29;20438;-81
2021/06/10 06:21:30;;;;;;;4.70;4.30;;;25.70;56.70;;;;;;4978765;28;20454;-80
2021/06/10 06:23:57;;;;;;;4.57;4.17;;;25.70;56.80;;;;;;4979593;28;20428;-80
2021/06/10 06:26:41;;;;;;;4.40;4.00;;;25.70;56.80;;;;;;4978380;28;20434;-82
2021/06/10 06:29:11;;;;;;;4.47;4.13;;;25.80;56.80;;;;;;4977577;28;20413;-80
2021/06/10 06:31:37;;;;;;;4.93;4.53;;;25.80;56.80;;;;;;4976746;28;20417;-80
2021/06/10 06:37:13;;;;;;;4.67;4.30;;;25.80;56.80;;;;;;4978299;29;20470;-80
2021/06/10 06:39:44;;;;;;;4.67;4.27;;;25.80;56.80;;;;;;4977135;29;20445;-80
2021/06/10 06:42:13;;;;;;;4.50;4.17;;;25.80;56.70;;;;;;4977982;28;20453;-80
2021/06/10 06:44:39;;;;;;;4.97;4.20;;;25.80;56.70;;;;;;4976816;28;20437;-80
2021/06/10 06:47:08;;;;;;;4.80;4.40;;;25.90;56.70;;;;;;4976389;29;20464;-79
2021/06/10 06:49:40;;;;;;;5.27;4.77;;;25.90;56.60;;;;;;4976512;29;20606;-79
2021/06/10 06:52:09;;;;;;;4.60;4.20;;;25.90;56.60;;;;;;4976898;28;20425;-79
2021/06/10 06:54:37;;;;;;;4.90;4.50;;;25.90;56.60;;;;;;4976468;29;20461;-79
2021/06/10 06:57:05;;;;;;;5.20;4.80;;;26.00;56.60;;;;;;4976350;28;20422;-79
2021/06/10 06:59:31;;;;;;;4.80;4.40;;;26.00;56.60;;;;;;4975914;28;20453;-79
2021/06/10 07:02:00;;;;;;;4.83;4.40;;;26.00;56.60;;;;;;4976831;28;20465;-79
2021/06/10 07:04:29;;;;;;;5.40;4.90;;;26.00;56.60;;;;;;4975848;28;20429;-79
2021/06/10 07:06:58;;;;;;;5.00;4.60;;;26.10;56.60;;;;;;4975061;29;20444;-79
2021/06/10 07:09:27;;;;;;;6.27;5.00;;;26.10;56.60;;;;;;4975180;28;20441;-79
2021/06/10 07:11:59;;;;;;;5.33;4.90;;;26.10;56.60;;;;;;4975741;28;20438;-80
2021/06/10 07:17:52;;;;;;;5.70;5.20;;;26.10;56.50;;;;;;4980051;29;20413;-80
2021/06/10 07:20:18;;;;;;;4.80;4.40;;;26.10;56.50;;;;;;4979139;29;20433;-79
2021/06/10 07:22:54;;;;;;;5.70;5.20;;;26.10;56.50;;;;;;4980078;28;20461;-80
2021/06/10 07:25:22;;;;;;;5.20;4.80;;;26.10;56.50;;;;;;4980545;28;20481;-80
2021/06/10 07:27:52;;;;;;;5.43;5.00;;;26.20;56.50;;;;;;4978532;29;20424;-79
2021/06/10 07:30:29;;;;;;;5.00;4.57;;;26.20;56.50;;;;;;4985398;28;20421;-80
2021/06/10 07:32:55;;;;;;;5.70;5.20;;;26.20;56.50;;;;;;4978491;29;20417;-80
2021/06/10 07:35:22;;;;;;;5.47;4.90;;;26.20;56.50;;;;;;4974045;28;20450;-80
2021/06/10 07:37:56;;;;;;;6.03;5.33;;;26.20;56.50;;;;;;4977115;28;20213;-79
2021/06/10 07:40:29;;;;;;;6.20;5.60;;;26.20;56.40;;;;;;4979451;29;20401;-80
2021/06/10 07:42:56;;;;;;;6.17;5.67;;;26.20;56.40;;;;;;4978572;29;20446;-80
2021/06/10 07:45:25;;;;;;;5.73;5.23;;;26.20;56.50;;;;;;4979301;29;20414;-80
2021/06/10 07:47:57;;;;;;;6.30;5.80;;;26.20;56.40;;;;;;4979449;29;20515;-79
2021/06/10 07:50:28;;;;;;;6.40;5.80;;;26.30;56.40;;;;;;4977824;29;20421;-79
2021/06/10 07:52:57;;;;;;;5.90;5.40;;;26.20;56.30;;;;;;4979844;29;20410;-80
2021/06/10 07:55:25;;;;;;;7.90;5.70;;;26.20;56.40;;;;;;4978726;29;20422;-79
2021/06/10 07:58:07;;;;;;;6.20;5.63;;;26.30;56.50;;;;;;4978233;28;20432;-79
2021/06/10 08:00:37;;;;;;;7.13;6.43;;;26.30;56.50;;;;;;4977835;29;20962;-80
2021/06/10 08:03:12;;;;;;;9.17;6.13;;;26.30;56.50;;;;;;4979304;28;20434;-79
2021/06/10 08:05:43;;;;;;;6.27;5.67;;;26.30;56.50;;;;;;4978798;29;20449;-79
2021/06/10 08:08:16;;;;;;;6.70;6.03;;;26.30;56.50;;;;;;4978733;29;20414;-79
2021/06/10 08:10:45;;;;;;;6.13;5.57;;;26.30;56.40;;;;;;4979100;29;20492;-80
2021/06/10 08:13:20;;;;;;;6.97;6.23;;;26.30;56.40;;;;;;4979251;28;20440;-79
2021/06/10 08:15:47;;;;;;;6.43;5.70;;;26.30;56.40;;;;;;4979906;29;20506;-80
2021/06/10 08:18:15;;;;;;;6.70;6.00;;;26.30;56.40;;;;;;4979254;28;20429;-79
2021/06/10 08:20:44;;;;;;;7.17;6.47;;;26.40;57.00;;;;;;4978234;29;20421;-79
2021/06/10 08:23:12;;;;;;;7.20;6.50;;;26.40;56.40;;;;;;4979199;29;20457;-80
2021/06/10 08:25:43;;;;;;;7.47;6.77;;;26.40;56.40;;;;;;4977889;28;20433;-80
2021/06/10 08:28:11;;;;;;;6.93;6.23;;;26.30;56.30;;;;;;4979026;28;20393;-80
2021/06/10 08:30:40;;;;;;;8.00;7.20;;;26.30;56.40;;;;;;4977032;29;20870;-80
2021/06/10 08:33:20;;;;;;;9.03;7.13;;;26.40;56.50;;;;;;4977556;29;20441;-80
2021/06/10 08:35:45;;;;;;;8.80;7.10;;;26.40;56.40;;;;;;4977641;28;20414;-80
2021/06/10 08:38:14;;;;;;;9.30;8.33;;;26.40;56.50;;;;;;4977922;28;20418;-80
2021/06/10 08:40:43;;;;;;;8.37;7.57;;;26.40;56.50;;;;;;4977826;28;20174;-79
2021/06/10 08:43:15;;;;;;;8.17;7.30;;;26.40;56.50;;;;;;4976601;29;20462;-80
2021/06/10 08:45:47;;;;;;;8.30;7.43;;;26.40;56.50;;;;;;4960926;29;20410;-79
2021/06/10 08:48:21;;;;;;;10.53;8.07;;;26.40;56.60;;;;;;4978655;28;20410;-80
2021/06/10 08:50:54;;;;;;;9.00;8.07;;;26.40;56.50;;;;;;4977455;29;20402;-80
2021/06/10 08:53:20;;;;;;;8.33;7.53;;;26.30;56.50;;;;;;4978636;29;20418;-79
2021/06/10 08:58:58;;;;;;;8.53;7.70;;;26.40;56.50;;;;;;4943633;28;20492;-80
2021/06/10 09:01:24;;;;;;;9.33;8.43;;;26.40;56.60;;;;;;4978523;28;20521;-79
2021/06/10 09:03:54;;;;;;;9.60;8.33;;;26.40;56.50;;;;;;4956887;29;20421;-78
2021/06/10 09:06:25;;;;;;;8.20;7.17;;;26.40;56.60;;;;;;4973585;28;20406;-78
2021/06/10 09:08:56;;;;;;;9.70;8.70;;;26.40;56.60;;;;;;4973517;28;20908;-79
2021/06/10 09:11:38;;;;;;;9.93;7.90;;;26.40;56.50;;;;;;4972912;28;20457;-78
2021/06/10 09:14:08;;;;;;;10.60;8.27;;;26.40;56.50;;;;;;4971684;29;20871;-79
2021/06/10 09:17:10;;;;;;;8.87;8.07;;;26.40;56.40;;;;;;4971518;28;20430;-80
2021/06/10 09:19:36;;;;;;;11.53;8.03;;;26.40;56.40;;;;;;4917092;29;20420;-80
2021/06/10 09:22:04;;;;;;;8.77;7.90;;;26.40;56.60;;;;;;4900623;29;20467;-80
2021/06/10 09:24:33;;;;;;;10.60;8.83;;;26.40;56.60;;;;;;4932740;29;20458;-80
2021/06/10 09:27:01;;;;;;;9.73;8.00;;;26.40;56.50;;;;;;4917152;29;20476;-80
2021/06/10 09:29:57;;;;;;;9.03;8.20;;;26.40;56.50;;;;;;4917170;29;20420;-80
2021/06/10 09:32:33;;;;;;;10.50;7.87;;;26.40;56.50;;;;;;4933231;29;20383;-80
2021/06/10 09:35:09;;;;;;;9.83;7.70;;;26.50;56.50;;;;;;4918766;29;20491;-80
2021/06/10 09:44:13;;;;;;;10.60;8.53;;;26.50;56.50;;;;;;4933339;29;20459;-78
2021/06/10 09:47:21;;;;;;;10.00;7.27;;;26.40;56.50;;;;;;4919938;29;20426;-78
2021/06/10 09:50:14;;;;;;;8.00;7.27;;;26.50;56.50;;;;;;4951780;29;20438;-78
2021/06/10 09:56:31;;;;;;;9.93;7.60;;;26.40;56.40;;;;;;4971162;29;20406;-80
2021/06/10 09:59:45;;;;;;;7.63;6.93;;;26.40;56.50;;;;;;4970818;28;20438;-79
2021/06/10 10:02:27;;;;;;;6.93;6.27;;;26.40;56.40;;;;;;4970129;28;20468;-80
2021/06/10 10:05:37;;;;;;;8.27;7.40;;;26.40;56.40;;;;;;4969831;28;20421;-80
2021/06/10 10:21:55;;;;;;;7.87;6.33;;;26.40;56.40;;;;;;4973881;29;20525;-79
2021/06/10 10:24:23;;;;;;;7.40;6.80;;;26.40;56.40;;;;;;4973194;28;20445;-79
2021/06/10 10:30:50;;;;;;;8.87;6.90;;;26.40;56.40;;;;;;4914601;29;20413;-79
2021/06/10 10:33:45;;;;;;;7.47;6.30;;;26.40;56.30;;;;;;4897567;29;20432;-79
2021/06/10 10:37:12;;;;;;;6.80;6.20;;;26.40;56.30;;;;;;4899215;29;20452;-79
2021/06/10 10:39:44;;;;;;;7.63;6.90;;;26.40;56.30;;;;;;4877018;29;20428;-79
2021/06/10 10:42:33;;;;;;;9.30;7.37;;;26.40;56.30;;;;;;4899172;29;20587;-79
2021/06/10 10:45:24;;;;;;;6.53;5.93;;;26.40;56.20;;;;;;4896823;29;20524;-79
2021/06/10 10:48:08;;;;;;;6.80;6.20;;;26.50;56.30;;;;;;4896641;29;20431;-79
2021/06/10 10:50:49;;;;;;;7.27;6.50;;;26.40;56.20;;;;;;4895979;29;20421;-79
2021/06/10 10:53:26;;;;;;;7.03;6.33;;;26.40;56.10;;;;;;4896693;29;20455;-79
2021/06/10 10:56:11;;;;;;;7.70;7.00;;;26.50;56.20;;;;;;4897230;29;20421;-79
2021/06/10 10:58:40;;;;;;;6.60;6.00;;;26.50;56.10;;;;;;4896685;29;20439;-80
2021/06/10 11:01:10;;;;;;;7.10;6.40;;;26.40;56.00;;;;;;4897248;29;20427;-79
2021/06/10 11:03:43;;;;;;;6.83;5.97;;;26.50;56.10;;;;;;4897546;29;20425;-80
2021/06/10 11:06:22;;;;;;;6.37;5.87;;;26.40;56.10;;;;;;4915660;29;20460;-79
2021/06/10 11:09:38;;;;;;;6.47;5.97;;;26.50;56.10;;;;;;4976814;28;20413;-79
2021/06/10 11:12:21;;;;;;;6.57;5.97;;;26.50;56.10;;;;;;4970496;29;20425;-80
2021/06/10 11:14:52;;;;;;;6.80;6.20;;;26.50;56.10;;;;;;4971393;29;20418;-80
2021/06/10 11:17:32;;;;;;;6.43;5.90;;;26.40;56.10;;;;;;4972499;28;20418;-80
2021/06/10 11:20:11;;;;;;;7.47;6.70;;;26.50;56.20;;;;;;4956835;29;20428;-80
2021/06/10 11:22:48;;;;;;;7.00;6.40;;;26.50;56.10;;;;;;4972434;28;20473;-80
2021/06/10 11:25:41;;;;;;;7.47;6.37;;;26.50;56.20;;;;;;4972188;29;20493;-80
2021/06/10 11:28:20;;;;;;;8.60;6.60;;;26.50;56.20;;;;;;4972794;29;20399;-81
2021/06/10 11:34:57;;;;;;;7.70;7.03;;;26.50;56.20;;;;;;4895690;29;20421;-81
2021/06/10 11:41:26;;;;;;;8.23;7.13;;;26.40;56.20;;;;;;4859750;29;20470;-82
2021/06/10 11:44:01;;;;;;;7.90;6.90;;;26.40;56.20;;;;;;4845210;29;20430;-82
2021/06/10 11:46:40;;;;;;;8.40;7.47;;;26.40;56.20;;;;;;4860060;29;20467;-82
2021/06/10 11:49:11;;;;;;;9.70;7.03;;;26.40;56.20;;;;;;4860919;29;20415;-80
2021/06/10 11:51:39;;;;;;;9.20;7.87;;;26.40;56.30;;;;;;4860576;29;20547;-80
2021/06/10 11:54:15;;;;;;;10.03;7.10;;;26.40;56.30;;;;;;4861127;29;20423;-80
2021/06/10 11:56:49;;;;;;;8.07;6.80;;;26.40;56.30;;;;;;4861010;29;20424;-79
2021/06/10 11:59:29;;;;;;;7.17;6.40;;;26.40;56.30;;;;;;4845786;29;20419;-79
2021/06/10 12:02:12;;;;;;;7.20;6.50;;;26.40;56.30;;;;;;4862285;29;20443;-79
2021/06/10 12:04:43;;;;;;;9.07;7.30;;;26.40;56.30;;;;;;4848294;29;20507;-79
2021/06/10 12:07:12;;;;;;;6.90;6.20;;;26.30;56.20;;;;;;4847545;29;20419;-81
2021/06/10 12:10:50;;;;;;;7.30;6.60;;;26.40;56.30;;;;;;4874952;29;20423;-81
2021/06/10 12:14:08;;;;;;;7.27;6.40;;;26.40;56.30;;;;;;4953030;29;20438;-80
2021/06/10 12:16:23;;;;;;;8.70;7.30;;;26.30;56.40;;;;;;4968698;29;20440;-79
2021/06/10 12:18:52;;;;;;;9.03;5.90;;;26.30;56.40;;;;;;4976746;28;20445;-79
2021/06/10 12:21:33;;;;;;;10.67;8.00;;;26.30;56.40;;;;;;4976660;29;20425;-83
2021/06/10 12:24:13;;;;;;;9.77;6.97;;;26.30;56.50;;;;;;4975800;29;20418;-79
2021/06/10 12:26:41;;;;;;;7.63;6.93;;;26.30;56.40;;;;;;4977610;29;20853;-79
2021/06/10 12:29:11;;;;;;;7.00;6.30;;;26.30;56.40;;;;;;4976766;29;20426;-79
2021/06/10 12:31:41;;;;;;;7.00;6.30;;;26.30;56.40;;;;;;4976987;29;20429;-79
2021/06/10 12:34:19;;;;;;;7.30;6.40;;;26.30;56.40;;;;;;4977181;29;20429;-79
2021/06/10 12:37:09;;;;;;;7.07;6.20;;;26.30;56.40;;;;;;4977735;29;20445;-80
2021/06/10 12:39:41;;;;;;;6.67;5.97;;;26.30;56.40;;;;;;4977700;29;20422;-80
2021/06/10 12:42:15;;;;;;;7.90;7.10;;;26.30;56.40;;;;;;4978094;28;20453;-80
2021/06/10 12:44:41;;;;;;;9.70;6.30;;;26.30;56.40;;;;;;4977562;29;20576;-80
2021/06/10 12:47:35;;;;;;;6.03;5.43;;;26.20;56.30;;;;;;4977492;28;20422;-81
2021/06/10 12:50:00;;;;;;;7.33;5.90;;;26.20;56.30;;;;;;4977499;29;20453;-80
2021/06/10 12:52:49;;;;;;;6.50;5.83;;;26.20;56.40;;;;;;4977623;29;20426;-79
2021/06/10 12:55:29;;;;;;;6.90;6.20;;;26.20;56.30;;;;;;4976139;29;20183;-80
2021/06/10 12:58:07;;;;;;;6.40;5.80;;;26.20;56.40;;;;;;4977387;29;20406;-80
2021/06/10 13:00:35;;;;;;;6.60;6.00;;;26.20;56.40;;;;;;4977611;29;20449;-78
2021/06/10 13:03:04;;;;;;;6.90;6.30;;;26.20;56.40;;;;;;4977523;29;20449;-79
2021/06/10 13:08:30;;;;;;;7.13;6.40;;;26.20;56.30;;;;;;4981304;28;20526;-79
2021/06/10 13:11:19;;;;;;;6.20;5.70;;;26.20;56.40;;;;;;5791014;23;20510;-80
2021/06/10 13:14:18;;;;;;;7.10;6.20;;;26.20;56.40;;;;;;4958132;29;20477;-79
2021/06/10 13:21:09;;;;;;;5.93;5.43;;;26.20;56.30;;;;;;4958043;29;20418;-79
2021/06/10 13:23:48;;;;;;;6.07;5.40;;;26.10;56.30;;;;;;4943573;29;20443;-80
2021/06/10 13:26:44;;;;;;;6.43;5.80;;;26.10;56.40;;;;;;4942911;29;20447;-80
2021/06/10 13:29:22;;;;;;;7.43;5.47;;;26.20;56.40;;;;;;4954451;29;20421;-80
2021/06/10 13:35:33;;;;;;;6.13;5.53;;;26.10;56.30;;;;;;4956581;29;20439;-80
2021/06/10 13:41:24;;;;;;;6.50;5.90;;;26.10;56.30;;;;;;4953307;29;20393;-79
2021/06/10 13:43:50;;;;;;;5.10;4.60;;;26.10;56.40;;;;;;4940121;29;20451;-79
2021/06/10 13:46:16;;;;;;;6.27;5.67;;;26.10;56.40;;;;;;4968616;28;20442;-79
2021/06/10 13:48:43;;;;;;;5.80;5.30;;;26.10;56.40;;;;;;4954244;29;20175;-80
2021/06/10 13:51:18;;;;;;;5.93;5.23;;;26.20;56.40;;;;;;4952678;29;20418;-79
2021/06/10 13:53:46;;;;;;;5.27;4.70;;;26.20;56.40;;;;;;4953043;29;20402;-79
2021/06/10 13:56:23;;;;;;;6.03;5.53;;;26.20;56.40;;;;;;4952644;29;20431;-83
2021/06/10 13:58:49;;;;;;;5.77;5.37;;;26.20;56.40;;;;;;4952518;29;20422;-79
2021/06/10 14:01:21;;;;;;;5.80;5.30;;;26.10;56.30;;;;;;4952600;29;20446;-80
2021/06/10 14:03:47;;;;;;;5.80;5.30;;;26.10;56.30;;;;;;4952010;29;20179;-79
2021/06/10 14:06:13;;;;;;;8.50;5.93;;;26.20;56.40;;;;;;4952938;29;20426;-79
2021/06/10 14:08:41;;;;;;;6.23;5.73;;;26.20;56.40;;;;;;4952307;29;20423;-79
2021/06/10 14:11:11;;;;;;;7.03;5.40;;;26.20;56.30;;;;;;4953187;29;20415;-79
2021/06/10 14:13:45;;;;;;;5.97;5.47;;;26.20;56.30;;;;;;4952266;29;20446;-80
2021/06/10 14:16:31;;;;;;;6.13;5.63;;;26.20;56.30;;;;;;4951333;29;20423;-80
2021/06/10 14:19:05;;;;;;;6.80;6.20;;;26.20;56.30;;;;;;4943421;29;20431;-80
2021/06/10 14:21:32;;;;;;;6.23;5.67;;;26.10;56.20;;;;;;4951969;29;20483;-80
2021/06/10 14:24:01;;;;;;;6.03;5.20;;;26.10;56.20;;;;;;4951544;29;20466;-80